Wetterdaten: Woche 29.08.11 - 04.09.11 (KW35)
Datum Zeit Temp. A. Feuchte A. Luftdruck Regen Wind Richtung Taupunkt Windchill Windben
29.08.2011 00:00 14,5 C 79 % 1017,6 hPa 0,0 l/m 0,1 km/h N 10,9 C 14,5 C 1,6 km/h
29.08.2011 01:00 14,1 C 80 % 1017,0 hPa 0,0 l/m 0,0 km/h N 10,6 C 14,1 C 1,2 km/h
29.08.2011 02:00 13,6 C 80 % 1016,7 hPa 0,0 l/m 0,1 km/h N 10,3 C 13,6 C 2,0 km/h
29.08.2011 03:00 13,3 C 81 % 1016,3 hPa 0,0 l/m 0,0 km/h N 10,1 C 13,3 C 1,2 km/h
29.08.2011 04:00 12,9 C 82 % 1016,2 hPa 0,0 l/m 0,0 km/h N 9,9 C 12,9 C 1,2 km/h
29.08.2011 05:00 12,5 C 82 % 1016,1 hPa 0,0 l/m 0,0 km/h N 9,5 C 12,5 C 0,4 km/h
29.08.2011 06:00 11,8 C 82 % 1016,2 hPa 0,0 l/m 0,0 km/h N 8,9 C 11,8 C 0,4 km/h
29.08.2011 07:00 12,3 C 81 % 1016,2 hPa 0,0 l/m 0,0 km/h N 9,2 C 12,3 C 1,2 km/h
29.08.2011 08:00 13,8 C 81 % 1016,0 hPa 0,0 l/m 0,1 km/h N 10,6 C 13,8 C 2,4 km/h
29.08.2011 09:00 15,5 C 81 % 1015,6 hPa 0,0 l/m 0,0 km/h N 12,2 C 15,5 C 1,6 km/h
29.08.2011 10:00 17,6 C 74 % 1015,3 hPa 0,0 l/m 0,1 km/h N 12,8 C 17,6 C 2,4 km/h
29.08.2011 11:00 20,6 C 66 % 1015,0 hPa 0,0 l/m 0,3 km/h N 13,9 C 20,6 C 2,4 km/h
29.08.2011 12:00 23,0 C 57 % 1014,3 hPa 0,0 l/m 0,5 km/h SW 14,1 C 23,0 C 3,6 km/h
29.08.2011 13:00 23,4 C 58 % 1013,7 hPa 0,0 l/m 0,7 km/h N-NO 14,7 C 23,4 C 4,4 km/h
29.08.2011 14:00 23,9 C 56 % 1013,2 hPa 0,0 l/m 0,7 km/h N 14,5 C 23,9 C 4,0 km/h
29.08.2011 15:00 24,5 C 52 % 1012,8 hPa 0,0 l/m 0,5 km/h N 14,1 C 24,5 C 4,0 km/h
29.08.2011 16:00 24,9 C 52 % 1012,3 hPa 0,0 l/m 0,3 km/h N 14,3 C 24,9 C 3,2 km/h
29.08.2011 17:00 24,9 C 52 % 1012,2 hPa 0,0 l/m 0,2 km/h N 14,4 C 24,9 C 2,0 km/h
29.08.2011 18:00 24,3 C 52 % 1012,0 hPa 0,0 l/m 0,0 km/h N 13,6 C 24,3 C 1,6 km/h
29.08.2011 19:00 23,2 C 56 % 1012,0 hPa 0,0 l/m 0,0 km/h N 13,7 C 23,2 C 0,0 km/h
29.08.2011 20:00 20,8 C 64 % 1012,5 hPa 0,0 l/m 0,1 km/h N 13,8 C 20,8 C 2,0 km/h
29.08.2011 21:00 19,4 C 68 % 1013,2 hPa 0,0 l/m 0,4 km/h S-SW 13,3 C 19,4 C 3,6 km/h
29.08.2011 22:00 19,7 C 65 % 1013,3 hPa 0,0 l/m 2,0 km/h S-SW 12,9 C 19,7 C 8,8 km/h
29.08.2011 23:00 20,2 C 63 % 1013,7 hPa 0,0 l/m 1,8 km/h N-NW 12,8 C 20,2 C 8,9 km/h
30.08.2011 00:00 19,9 C 62 % 1014,1 hPa 0,0 l/m 2,1 km/h N-NW 12,5 C 19,9 C 6,8 km/h
30.08.2011 01:00 18,9 C 64 % 1014,2 hPa 0,0 l/m 0,6 km/h N-NW 11,9 C 18,9 C 3,2 km/h
30.08.2011 02:00 18,3 C 64 % 1014,2 hPa 0,0 l/m 1,0 km/h N-NW 11,3 C 18,3 C 4,0 km/h
30.08.2011 03:00 17,5 C 65 % 1014,2 hPa 0,0 l/m 0,1 km/h N 10,9 C 17,5 C 1,6 km/h
30.08.2011 04:00 16,1 C 69 % 1014,1 hPa 0,0 l/m 0,0 km/h N 10,5 C 16,1 C 0,0 km/h
30.08.2011 05:00 15,5 C 71 % 1014,1 hPa 0,0 l/m 0,3 km/h N 10,2 C 15,5 C 2,4 km/h
30.08.2011 06:00 15,5 C 69 % 1014,2 hPa 0,0 l/m 0,3 km/h N 9,8 C 15,5 C 2,4 km/h
30.08.2011 07:00 16,0 C 67 % 1014,2 hPa 0,0 l/m 2,1 km/h N-NW 9,8 C 16,0 C 6,4 km/h
30.08.2011 08:00 17,1 C 64 % 1014,3 hPa 0,0 l/m 3,5 km/h N 10,2 C 17,1 C 8,0 km/h
30.08.2011 09:00 18,2 C 60 % 1014,6 hPa 0,0 l/m 2,5 km/h N 10,2 C 18,2 C 7,6 km/h
30.08.2011 10:00 19,4 C 55 % 1014,7 hPa 0,0 l/m 4,0 km/h N 10,2 C 19,4 C 10,5 km/h
30.08.2011 11:00 21,0 C 54 % 1014,4 hPa 0,0 l/m 2,7 km/h N-NW 11,2 C 21,0 C 8,9 km/h
30.08.2011 12:00 22,4 C 49 % 1013,9 hPa 0,0 l/m 3,3 km/h N-NW 11,0 C 22,4 C 10,1 km/h
30.08.2011 13:00 22,9 C 49 % 1013,4 hPa 0,0 l/m 2,8 km/h N-NO 11,6 C 22,9 C 9,3 km/h
30.08.2011 14:00 23,2 C 50 % 1012,9 hPa 0,0 l/m 2,8 km/h N-NW 12,0 C 23,2 C 8,9 km/h
30.08.2011 15:00 23,0 C 49 % 1012,9 hPa 0,0 l/m 2,8 km/h N-NW 11,5 C 23,0 C 8,9 km/h
30.08.2011 16:00 22,5 C 50 % 1012,8 hPa 0,0 l/m 2,0 km/h N-NW 11,5 C 22,5 C 7,2 km/h
30.08.2011 17:00 21,8 C 51 % 1013,0 hPa 0,0 l/m 4,8 km/h NW 11,2 C 21,8 C 13,3 km/h
30.08.2011 18:00 20,8 C 58 % 1013,0 hPa 0,0 l/m 1,5 km/h NW 12,1 C 20,8 C 6,8 km/h
30.08.2011 19:00 19,8 C 63 % 1013,0 hPa 0,0 l/m 0,5 km/h N 12,4 C 19,8 C 4,0 km/h
30.08.2011 20:00 19,0 C 65 % 1013,2 hPa 0,0 l/m 0,2 km/h N 12,3 C 19,0 C 2,4 km/h
30.08.2011 21:00 18,6 C 63 % 1013,6 hPa 0,0 l/m 0,4 km/h N 11,3 C 18,6 C 4,4 km/h
30.08.2011 22:00 17,6 C 64 % 1013,8 hPa 0,0 l/m 0,4 km/h N 10,6 C 17,6 C 4,0 km/h
30.08.2011 23:00 17,0 C 62 % 1013,7 hPa 0,0 l/m 0,8 km/h N 9,6 C 17,0 C 6,0 km/h
31.08.2011 00:00 16,9 C 63 % 1013,8 hPa 0,0 l/m 0,1 km/h N 9,7 C 16,9 C 3,2 km/h
31.08.2011 01:00 16,4 C 65 % 1014,0 hPa 0,0 l/m 0,1 km/h N 9,8 C 16,4 C 2,0 km/h
31.08.2011 02:00 15,7 C 69 % 1013,8 hPa 0,0 l/m 0,4 km/h N 10,0 C 15,7 C 3,6 km/h
31.08.2011 03:00 14,9 C 72 % 1013,9 hPa 0,0 l/m 0,3 km/h N 9,9 C 14,9 C 2,0 km/h
31.08.2011 04:00 14,5 C 74 % 1013,9 hPa 0,0 l/m 0,0 km/h N 10,0 C 14,5 C 1,6 km/h
31.08.2011 05:00 14,3 C 75 % 1013,9 hPa 0,0 l/m 0,0 km/h N 9,9 C 14,3 C 1,2 km/h
31.08.2011 06:00 13,6 C 76 % 1014,2 hPa 0,0 l/m 0,0 km/h N 9,5 C 13,6 C 0,8 km/h
31.08.2011 07:00 13,5 C 78 % 1014,4 hPa 0,0 l/m 0,0 km/h N 9,6 C 13,5 C 0,8 km/h
31.08.2011 08:00 14,6 C 77 % 1014,5 hPa 0,0 l/m 0,1 km/h N 10,6 C 14,6 C 1,6 km/h
31.08.2011 09:00 16,1 C 71 % 1014,7 hPa 0,0 l/m 0,0 km/h N 10,8 C 16,1 C 0,8 km/h
31.08.2011 10:00 17,5 C 66 % 1014,8 hPa 0,0 l/m 0,0 km/h N 11,2 C 17,5 C 1,2 km/h
31.08.2011 11:00 18,9 C 62 % 1014,6 hPa 0,0 l/m 0,3 km/h N 11,4 C 18,9 C 2,4 km/h
31.08.2011 12:00 20,5 C 55 % 1013,9 hPa 0,0 l/m 0,6 km/h N 11,1 C 20,5 C 4,8 km/h
31.08.2011 13:00 21,7 C 54 % 1013,4 hPa 0,0 l/m 0,8 km/h W-SW 11,8 C 21,7 C 5,2 km/h
31.08.2011 14:00 22,5 C 52 % 1012,8 hPa 0,0 l/m 0,8 km/h N 12,3 C 22,5 C 6,8 km/h
31.08.2011 15:00 23,0 C 54 % 1012,2 hPa 0,0 l/m 0,4 km/h NO 13,2 C 23,0 C 4,0 km/h
31.08.2011 16:00 23,4 C 55 % 1011,8 hPa 0,0 l/m 0,6 km/h N 13,8 C 23,4 C 4,4 km/h
31.08.2011 17:00 23,5 C 56 % 1011,7 hPa 0,0 l/m 0,6 km/h N 14,2 C 23,5 C 4,8 km/h
31.08.2011 18:00 22,5 C 58 % 1011,9 hPa 0,0 l/m 0,3 km/h N 13,8 C 22,5 C 2,8 km/h
31.08.2011 19:00 21,9 C 59 % 1011,7 hPa 0,0 l/m 0,3 km/h N 13,4 C 21,9 C 2,4 km/h
31.08.2011 20:00 20,7 C 61 % 1012,4 hPa 0,0 l/m 0,2 km/h N 13,0 C 20,7 C 2,4 km/h
31.08.2011 21:00 19,5 C 65 % 1012,9 hPa 0,0 l/m 0,0 km/h N 12,8 C 19,5 C 0,0 km/h
31.08.2011 22:00 17,7 C 71 % 1013,1 hPa 0,0 l/m 0,0 km/h N 12,3 C 17,7 C 0,0 km/h
31.08.2011 23:00 16,3 C 76 % 1013,5 hPa 0,0 l/m 0,0 km/h N 12,1 C 16,3 C 0,0 km/h
01.09.2011 00:00 15,8 C 77 % 1013,8 hPa 0,0 l/m 0,0 km/h N 11,8 C 15,8 C 0,0 km/h
01.09.2011 01:00 15,5 C 78 % 1013,7 hPa 0,0 l/m 0,0 km/h N 11,7 C 15,5 C 0,4 km/h
01.09.2011 02:00 14,8 C 80 % 1013,6 hPa 0,0 l/m 0,0 km/h N 11,3 C 14,8 C 0,0 km/h
01.09.2011 03:00 14,3 C 81 % 1013,4 hPa 0,0 l/m 0,0 km/h N 11,1 C 14,3 C 0,0 km/h
01.09.2011 04:00 13,9 C 81 % 1013,5 hPa 0,0 l/m 0,0 km/h N 10,7 C 13,9 C 0,0 km/h
01.09.2011 05:00 13,4 C 82 % 1013,6 hPa 0,0 l/m 0,0 km/h N 10,4 C 13,4 C 0,0 km/h
01.09.2011 06:00 13,1 C 82 % 1013,7 hPa 0,0 l/m 0,0 km/h N 10,1 C 13,1 C 0,0 km/h
01.09.2011 07:00 13,1 C 82 % 1013,9 hPa 0,0 l/m 0,0 km/h N 10,1 C 13,1 C 0,4 km/h
01.09.2011 08:00 14,2 C 82 % 1013,9 hPa 0,0 l/m 0,0 km/h N 11,1 C 14,2 C 0,0 km/h
01.09.2011 09:00 16,1 C 77 % 1014,0 hPa 0,0 l/m 0,1 km/h N 12,0 C 16,1 C 2,0 km/h
01.09.2011 10:00 18,4 C 67 % 1014,0 hPa 0,0 l/m 0,0 km/h N 12,1 C 18,4 C 1,6 km/h
01.09.2011 11:00 20,5 C 60 % 1013,8 hPa 0,0 l/m 0,3 km/h N 12,6 C 20,5 C 4,0 km/h
01.09.2011 12:00 22,1 C 59 % 1013,4 hPa 0,0 l/m 0,3 km/h N 13,6 C 22,1 C 2,4 km/h
01.09.2011 13:00 23,1 C 56 % 1013,2 hPa 0,0 l/m 0,1 km/h N 13,8 C 23,1 C 2,4 km/h
01.09.2011 14:00 23,5 C 58 % 1013,0 hPa 0,0 l/m 0,0 km/h N 14,7 C 23,5 C 1,6 km/h
01.09.2011 15:00 23,7 C 60 % 1012,7 hPa 0,0 l/m 0,0 km/h N 15,3 C 23,7 C 1,6 km/h
01.09.2011 16:00 24,2 C 57 % 1012,8 hPa 0,0 l/m 0,9 km/h N-NW 15,1 C 24,2 C 4,4 km/h
01.09.2011 17:00 23,8 C 59 % 1013,0 hPa 0,0 l/m 1,0 km/h N-NW 15,2 C 23,8 C 4,0 km/h
01.09.2011 18:00 22,7 C 60 % 1013,1 hPa 0,0 l/m 0,4 km/h W-NW 14,6 C 22,7 C 4,4 km/h
01.09.2011 19:00 22,0 C 60 % 1013,3 hPa 0,0 l/m 2,8 km/h NW 13,8 C 22,0 C 9,3 km/h
01.09.2011 20:00 20,8 C 66 % 1013,7 hPa 0,0 l/m 2,2 km/h N 14,1 C 20,8 C 5,6 km/h
01.09.2011 21:00 19,3 C 72 % 1013,5 hPa 0,0 l/m 1,0 km/h NW 14,1 C 19,3 C 8,0 km/h
01.09.2011 22:00 18,8 C 73 % 1013,4 hPa 0,0 l/m 0,5 km/h N 13,9 C 18,8 C 6,4 km/h
01.09.2011 23:00 19,0 C 74 % 1013,6 hPa 0,0 l/m 0,5 km/h N 14,2 C 19,0 C 4,4 km/h
02.09.2011 00:00 19,2 C 73 % 1013,7 hPa 0,0 l/m 0,7 km/h S 14,2 C 19,2 C 5,2 km/h
02.09.2011 01:00 19,1 C 72 % 1013,7 hPa 0,0 l/m 0,8 km/h SW 14,0 C 19,1 C 6,0 km/h
02.09.2011 02:00 18,4 C 73 % 1013,6 hPa 0,0 l/m 0,0 km/h N 13,5 C 18,4 C 0,8 km/h
02.09.2011 03:00 17,3 C 77 % 1013,6 hPa 0,0 l/m 0,1 km/h N 13,1 C 17,3 C 2,8 km/h
02.09.2011 04:00 16,8 C 79 % 1013,8 hPa 0,0 l/m 0,1 km/h N 13,1 C 16,8 C 2,4 km/h
02.09.2011 05:00 15,9 C 81 % 1013,7 hPa 0,0 l/m 0,0 km/h N 12,6 C 15,9 C 1,6 km/h
02.09.2011 06:00 15,3 C 81 % 1014,1 hPa 0,0 l/m 0,0 km/h N 12,1 C 15,3 C 0,0 km/h
02.09.2011 07:00 15,3 C 81 % 1014,5 hPa 0,0 l/m 0,0 km/h N 12,1 C 15,3 C 1,2 km/h
02.09.2011 08:00 16,5 C 80 % 1014,6 hPa 0,0 l/m 0,0 km/h N 13,1 C 16,5 C 0,8 km/h
02.09.2011 09:00 17,7 C 81 % 1014,7 hPa 0,0 l/m 0,0 km/h N 14,4 C 17,7 C 1,2 km/h
02.09.2011 10:00 20,3 C 76 % 1014,4 hPa 0,0 l/m 0,4 km/h N 15,8 C 20,3 C 3,2 km/h
02.09.2011 11:00 22,8 C 61 % 1014,3 hPa 0,0 l/m 1,9 km/h N 14,8 C 22,8 C 8,1 km/h
02.09.2011 12:00 24,6 C 52 % 1014,0 hPa 0,0 l/m 3,2 km/h N-NO 13,9 C 24,6 C 8,9 km/h
02.09.2011 13:00 25,7 C 50 % 1013,6 hPa 0,0 l/m 2,6 km/h N-NW 14,3 C 25,7 C 8,9 km/h
02.09.2011 14:00 26,3 C 48 % 1013,3 hPa 0,0 l/m 3,6 km/h N-NW 14,4 C 26,3 C 10,1 km/h
02.09.2011 15:00 26,7 C 48 % 1012,9 hPa 0,0 l/m 1,3 km/h N-NO 14,8 C 26,7 C 6,8 km/h
02.09.2011 16:00 26,5 C 49 % 1012,8 hPa 0,0 l/m 1,2 km/h W-SW 14,8 C 26,5 C 7,6 km/h
02.09.2011 17:00 25,5 C 57 % 1012,9 hPa 0,3 l/m 0,9 km/h N 16,2 C 25,5 C 3,2 km/h
02.09.2011 18:00 25,1 C 59 % 1012,8 hPa 0,0 l/m 0,4 km/h N 16,4 C 25,1 C 2,0 km/h
02.09.2011 19:00 24,2 C 59 % 1012,7 hPa 0,0 l/m 0,0 km/h N 15,7 C 24,2 C 0,4 km/h
02.09.2011 20:00 22,7 C 59 % 1013,5 hPa 0,0 l/m 0,3 km/h N 14,2 C 22,7 C 4,4 km/h
02.09.2011 21:00 22,6 C 60 % 1013,8 hPa 0,0 l/m 0,6 km/h S-SW 14,4 C 22,6 C 6,0 km/h
02.09.2011 22:00 22,3 C 61 % 1014,1 hPa 0,0 l/m 0,3 km/h N 14,5 C 22,3 C 5,2 km/h
02.09.2011 23:00 22,0 C 64 % 1014,2 hPa 0,0 l/m 0,1 km/h N 14,7 C 22,0 C 2,0 km/h
03.09.2011 00:00 20,9 C 64 % 1014,3 hPa 0,0 l/m 0,2 km/h N 13,8 C 20,9 C 3,2 km/h
03.09.2011 01:00 19,9 C 67 % 1014,4 hPa 0,0 l/m 0,3 km/h N 13,6 C 19,9 C 4,0 km/h
03.09.2011 02:00 19,0 C 71 % 1014,3 hPa 0,0 l/m 0,0 km/h N 13,5 C 19,0 C 1,2 km/h
03.09.2011 03:00 17,5 C 76 % 1014,6 hPa 0,0 l/m 0,1 km/h N 13,1 C 17,5 C 1,6 km/h
03.09.2011 04:00 16,5 C 78 % 1014,8 hPa 0,0 l/m 0,0 km/h N 12,7 C 16,5 C 1,2 km/h
03.09.2011 05:00 15,7 C 81 % 1015,0 hPa 0,0 l/m 0,0 km/h N 12,4 C 15,7 C 0,4 km/h
03.09.2011 06:00 15,4 C 81 % 1015,3 hPa 0,0 l/m 0,0 km/h N 12,2 C 15,4 C 1,6 km/h
03.09.2011 07:00 15,8 C 81 % 1015,6 hPa 0,0 l/m 0,0 km/h N 12,5 C 15,8 C 0,4 km/h
03.09.2011 08:00 16,9 C 81 % 1015,8 hPa 0,0 l/m 0,0 km/h N 13,6 C 16,9 C 0,8 km/h
03.09.2011 09:00 18,5 C 80 % 1015,6 hPa 0,0 l/m 0,0 km/h N 15,0 C 18,5 C 1,6 km/h
03.09.2011 10:00 20,8 C 75 % 1015,6 hPa 0,0 l/m 0,2 km/h N 16,1 C 20,8 C 2,8 km/h
03.09.2011 11:00 23,1 C 66 % 1015,4 hPa 0,0 l/m 0,3 km/h N 16,3 C 23,1 C 3,2 km/h
03.09.2011 12:00 25,5 C 57 % 1015,4 hPa 0,0 l/m 0,6 km/h SW 16,4 C 25,5 C 6,0 km/h
03.09.2011 13:00 26,8 C 53 % 1015,2 hPa 0,0 l/m 0,7 km/h N 16,2 C 26,8 C 6,0 km/h
03.09.2011 14:00 27,3 C 51 % 1014,8 hPa 0,0 l/m 0,7 km/h N 16,3 C 27,3 C 5,6 km/h
03.09.2011 15:00 27,9 C 50 % 1014,3 hPa 0,0 l/m 0,8 km/h N 16,4 C 27,9 C 4,4 km/h
03.09.2011 16:00 28,2 C 49 % 1013,8 hPa 0,0 l/m 0,7 km/h N 16,4 C 28,2 C 4,4 km/h
03.09.2011 17:00 28,0 C 50 % 1013,5 hPa 0,0 l/m 0,5 km/h N 16,5 C 28,0 C 4,4 km/h
03.09.2011 18:00 27,4 C 51 % 1013,1 hPa 0,0 l/m 0,4 km/h N 16,1 C 27,4 C 3,6 km/h
03.09.2011 19:00 26,3 C 53 % 1013,0 hPa 0,0 l/m 0,0 km/h N 15,8 C 26,3 C 1,6 km/h
03.09.2011 20:00 24,6 C 58 % 1013,3 hPa 0,0 l/m 0,0 km/h N 15,8 C 24,6 C 0,8 km/h
03.09.2011 21:00 22,1 C 68 % 1013,4 hPa 0,0 l/m 0,0 km/h N 15,8 C 22,1 C 0,0 km/h
03.09.2011 22:00 20,1 C 77 % 1013,3 hPa 0,0 l/m 0,0 km/h N 15,9 C 20,1 C 0,0 km/h
03.09.2011 23:00 18,7 C 79 % 1013,2 hPa 0,0 l/m 0,0 km/h N 15,1 C 18,7 C 0,0 km/h
04.09.2011 00:00 17,9 C 81 % 1012,9 hPa 0,0 l/m 0,0 km/h N 14,5 C 17,9 C 0,0 km/h
04.09.2011 01:00 17,4 C 81 % 1012,7 hPa 0,0 l/m 0,0 km/h N 14,1 C 17,4 C 0,0 km/h
04.09.2011 02:00 16,9 C 81 % 1012,4 hPa 0,0 l/m 0,0 km/h N 13,6 C 16,9 C 0,0 km/h
04.09.2011 03:00 16,5 C 81 % 1012,1 hPa 0,0 l/m 0,0 km/h N 13,3 C 16,5 C 0,0 km/h
04.09.2011 04:00 16,2 C 81 % 1011,8 hPa 0,0 l/m 0,0 km/h N 12,9 C 16,2 C 0,4 km/h
04.09.2011 05:00 15,9 C 81 % 1011,8 hPa 0,0 l/m 0,0 km/h N 12,6 C 15,9 C 0,0 km/h
04.09.2011 06:00 15,6 C 80 % 1011,5 hPa 0,0 l/m 0,0 km/h N 12,2 C 15,6 C 0,0 km/h
04.09.2011 07:00 16,0 C 79 % 1011,8 hPa 0,0 l/m 0,0 km/h N 12,4 C 16,0 C 0,0 km/h
04.09.2011 08:00 17,6 C 77 % 1011,8 hPa 0,0 l/m 0,2 km/h N 13,5 C 17,6 C 2,4 km/h
04.09.2011 09:00 19,3 C 80 % 1012,0 hPa 0,0 l/m 0,1 km/h N 15,6 C 19,3 C 2,0 km/h
04.09.2011 10:00 21,4 C 79 % 1012,1 hPa 0,0 l/m 0,1 km/h N 17,4 C 21,4 C 2,0 km/h
04.09.2011 11:00 24,3 C 70 % 1012,0 hPa 0,0 l/m 0,5 km/h W-SW 18,4 C 24,3 C 3,6 km/h
04.09.2011 12:00 28,4 C 54 % 1011,5 hPa 0,0 l/m 1,6 km/h O-SO 18,2 C 28,4 C 10,5 km/h
04.09.2011 13:00 30,0 C 49 % 1011,3 hPa 0,0 l/m 1,7 km/h O 17,9 C 30,0 C 11,7 km/h
04.09.2011 14:00 30,4 C 47 % 1010,9 hPa 0,0 l/m 1,5 km/h O 17,8 C 30,4 C 8,0 km/h
04.09.2011 15:00 30,6 C 47 % 1010,5 hPa 0,0 l/m 1,5 km/h O-SO 18,0 C 30,6 C 7,6 km/h
04.09.2011 16:00 30,8 C 47 % 1010,0 hPa 0,0 l/m 1,3 km/h S 18,2 C 30,8 C 10,9 km/h
04.09.2011 17:00 30,3 C 49 % 1009,7 hPa 0,0 l/m 1,1 km/h N 18,1 C 30,3 C 7,7 km/h
04.09.2011 18:00 29,4 C 53 % 1009,4 hPa 0,0 l/m 1,0 km/h NO 18,7 C 29,4 C 6,4 km/h
04.09.2011 19:00 28,3 C 56 % 1009,3 hPa 0,0 l/m 0,6 km/h N 18,6 C 28,3 C 6,8 km/h
04.09.2011 20:00 26,6 C 61 % 1009,4 hPa 0,0 l/m 0,1 km/h N 18,5 C 26,6 C 2,4 km/h
04.09.2011 21:00 25,7 C 64 % 1009,7 hPa 0,0 l/m 0,1 km/h N 18,3 C 25,7 C 4,4 km/h
04.09.2011 22:00 24,6 C 67 % 1009,5 hPa 0,0 l/m 0,1 km/h N 18,0 C 24,6 C 3,6 km/h
04.09.2011 23:00 24,1 C 66 % 1009,3 hPa 0,0 l/m 0,2 km/h N 17,3 C 24,1 C 4,4 km/h
Min-Datum _ 29.08.11 04.09.11 04.09.11 - 29.08.11 - 29.08.11 29.08.11 29.08.11
_ Min-Zeit 06:30 14:45 19:45 - 00:00 - 06:30 06:30 00:15
Minimum _ 11,7 C 46 % 1009,2 hPa - 0,0 km/h - 8,7 C 11,7 C 0,0 km/h
Max-Datum _ 04.09.11 29.08.11 29.08.11 02.09.11 30.08.11 - 04.09.11 04.09.11 04.09.11
_ Max-Zeit 16:15 04:00 00:00 17:00 10:15 - 11:45 16:15 13:00
Maximum _ 30,9 C 82 % 1017,7 hPa 0,3 l/m 5,6 km/h
N
- 19,0 C 30,9 C 16,1 km/h
SW
Durchschnitt _ 20,1 C 66 % 1013,5 hPa #0,3 l/m 0,6 km/h N-NW 13,3 C 20,1 C 3,5 km/h